sensor_id;sensor_type;location;lat;lon;timestamp;temperature;humidity
35541;DHT22;21650;48.840;9.162;2022-10-26T00:01:25;11.80;99.90
35541;DHT22;21650;48.840;9.162;2022-10-26T00:03:51;11.80;99.90
35541;DHT22;21650;48.840;9.162;2022-10-26T00:06:18;11.90;99.90
35541;DHT22;21650;48.840;9.162;2022-10-26T00:08:45;11.90;99.90
35541;DHT22;21650;48.840;9.162;2022-10-26T00:11:11;11.80;99.90
35541;DHT22;21650;48.840;9.162;2022-10-26T00:13:38;11.90;99.90
35541;DHT22;21650;48.840;9.162;2022-10-26T00:16:26;11.90;99.90
35541;DHT22;21650;48.840;9.162;2022-10-26T00:18:52;11.90;99.90
35541;DHT22;21650;48.840;9.162;2022-10-26T00:21:17;11.90;99.90
35541;DHT22;21650;48.840;9.162;2022-10-26T00:23:43;11.90;99.90
35541;DHT22;21650;48.840;9.162;2022-10-26T00:26:09;11.90;99.90
35541;DHT22;21650;48.840;9.162;2022-10-26T00:28:35;11.90;99.90
35541;DHT22;21650;48.840;9.162;2022-10-26T00:31:02;11.90;99.90
35541;DHT22;21650;48.840;9.162;2022-10-26T00:33:28;11.90;99.90
35541;DHT22;21650;48.840;9.162;2022-10-26T00:35:54;11.90;99.90
35541;DHT22;21650;48.840;9.162;2022-10-26T00:38:20;11.90;99.90
35541;DHT22;21650;48.840;9.162;2022-10-26T00:40:46;11.90;99.90
35541;DHT22;21650;48.840;9.162;2022-10-26T00:45:47;12.00;99.90
35541;DHT22;21650;48.840;9.162;2022-10-26T00:48:25;11.90;99.90
35541;DHT22;21650;48.840;9.162;2022-10-26T00:50:53;12.00;99.90
35541;DHT22;21650;48.840;9.162;2022-10-26T00:53:20;12.00;99.90
35541;DHT22;21650;48.840;9.162;2022-10-26T00:55:50;12.00;99.90
35541;DHT22;21650;48.840;9.162;2022-10-26T00:58:17;12.00;99.90
35541;DHT22;21650;48.840;9.162;2022-10-26T01:00:44;12.00;99.90
35541;DHT22;21650;48.840;9.162;2022-10-26T01:03:10;12.00;99.90
35541;DHT22;21650;48.840;9.162;2022-10-26T01:05:40;12.00;99.90
35541;DHT22;21650;48.840;9.162;2022-10-26T01:08:07;12.00;99.90
35541;DHT22;21650;48.840;9.162;2022-10-26T01:10:35;12.00;99.90
35541;DHT22;21650;48.840;9.162;2022-10-26T01:13:02;12.00;99.90
35541;DHT22;21650;48.840;9.162;2022-10-26T01:15:54;12.10;99.90
35541;DHT22;21650;48.840;9.162;2022-10-26T01:35:14;12.20;99.90
35541;DHT22;21650;48.840;9.162;2022-10-26T01:38:07;12.10;99.90
35541;DHT22;21650;48.840;9.162;2022-10-26T01:40:48;12.10;99.90
35541;DHT22;21650;48.840;9.162;2022-10-26T01:43:16;12.10;99.90
35541;DHT22;21650;48.840;9.162;2022-10-26T01:45:45;12.10;99.90
35541;DHT22;21650;48.840;9.162;2022-10-26T01:48:13;12.20;99.90
35541;DHT22;21650;48.840;9.162;2022-10-26T01:50:42;12.20;99.90
35541;DHT22;21650;48.840;9.162;2022-10-26T01:53:12;12.20;99.90
35541;DHT22;21650;48.840;9.162;2022-10-26T02:01:20;12.20;99.90
35541;DHT22;21650;48.840;9.162;2022-10-26T02:06:35;12.10;99.90
35541;DHT22;21650;48.840;9.162;2022-10-26T02:11:53;12.10;99.90
35541;DHT22;21650;48.840;9.162;2022-10-26T02:14:47;12.10;99.90
35541;DHT22;21650;48.840;9.162;2022-10-26T02:17:28;12.10;99.90
35541;DHT22;21650;48.840;9.162;2022-10-26T02:20:07;12.10;99.90
35541;DHT22;21650;48.840;9.162;2022-10-26T02:22:48;12.10;99.90
35541;DHT22;21650;48.840;9.162;2022-10-26T02:25:25;12.10;99.90
35541;DHT22;21650;48.840;9.162;2022-10-26T02:27:58;12.00;99.90
35541;DHT22;21650;48.840;9.162;2022-10-26T02:30:25;11.90;99.90
35541;DHT22;21650;48.840;9.162;2022-10-26T02:32:53;11.90;99.90
35541;DHT22;21650;48.840;9.162;2022-10-26T02:35:26;12.00;99.90
35541;DHT22;21650;48.840;9.162;2022-10-26T02:37:54;12.00;99.90
35541;DHT22;21650;48.840;9.162;2022-10-26T02:40:25;12.00;99.90
35541;DHT22;21650;48.840;9.162;2022-10-26T02:42:52;12.00;99.90
35541;DHT22;21650;48.840;9.162;2022-10-26T02:45:28;11.90;99.90
35541;DHT22;21650;48.840;9.162;2022-10-26T02:47:56;12.00;99.90
35541;DHT22;21650;48.840;9.162;2022-10-26T02:50:28;12.00;99.90
35541;DHT22;21650;48.840;9.162;2022-10-26T02:56:12;12.00;99.90
35541;DHT22;21650;48.840;9.162;2022-10-26T02:58:43;12.00;99.90
35541;DHT22;21650;48.840;9.162;2022-10-26T03:01:11;12.00;99.90
35541;DHT22;21650;48.840;9.162;2022-10-26T03:03:37;12.00;99.90
35541;DHT22;21650;48.840;9.162;2022-10-26T03:06:02;12.00;99.90
35541;DHT22;21650;48.840;9.162;2022-10-26T03:08:28;12.00;99.90
35541;DHT22;21650;48.840;9.162;2022-10-26T03:10:53;11.90;99.90
35541;DHT22;21650;48.840;9.162;2022-10-26T03:13:19;12.00;99.90
35541;DHT22;21650;48.840;9.162;2022-10-26T03:15:45;11.90;99.90
35541;DHT22;21650;48.840;9.162;2022-10-26T03:18:10;11.90;99.90
35541;DHT22;21650;48.840;9.162;2022-10-26T03:20:36;11.90;99.90
35541;DHT22;21650;48.840;9.162;2022-10-26T03:23:01;11.90;99.90
35541;DHT22;21650;48.840;9.162;2022-10-26T03:25:27;11.90;99.90
35541;DHT22;21650;48.840;9.162;2022-10-26T03:28:00;12.00;99.90
35541;DHT22;21650;48.840;9.162;2022-10-26T03:30:26;12.00;99.90
35541;DHT22;21650;48.840;9.162;2022-10-26T03:32:52;12.00;99.90
35541;DHT22;21650;48.840;9.162;2022-10-26T03:35:18;12.00;99.90
35541;DHT22;21650;48.840;9.162;2022-10-26T03:37:44;12.00;99.90
35541;DHT22;21650;48.840;9.162;2022-10-26T03:40:11;12.00;99.90
35541;DHT22;21650;48.840;9.162;2022-10-26T03:42:36;12.00;99.90
35541;DHT22;21650;48.840;9.162;2022-10-26T03:45:03;12.00;99.90
35541;DHT22;21650;48.840;9.162;2022-10-26T03:47:29;12.00;99.90
35541;DHT22;21650;48.840;9.162;2022-10-26T03:49:55;12.00;99.90
35541;DHT22;21650;48.840;9.162;2022-10-26T03:52:20;12.10;99.90
35541;DHT22;21650;48.840;9.162;2022-10-26T03:54:48;12.20;99.90
35541;DHT22;21650;48.840;9.162;2022-10-26T03:57:14;12.10;99.90
35541;DHT22;21650;48.840;9.162;2022-10-26T03:59:39;12.20;99.90
35541;DHT22;21650;48.840;9.162;2022-10-26T04:02:05;12.20;99.90
35541;DHT22;21650;48.840;9.162;2022-10-26T04:04:31;12.20;99.90
35541;DHT22;21650;48.840;9.162;2022-10-26T04:06:57;12.20;99.90
35541;DHT22;21650;48.840;9.162;2022-10-26T04:09:22;12.10;99.90
35541;DHT22;21650;48.840;9.162;2022-10-26T04:11:48;12.10;99.90
35541;DHT22;21650;48.840;9.162;2022-10-26T04:14:14;12.10;99.90
35541;DHT22;21650;48.840;9.162;2022-10-26T04:16:39;12.00;99.90
35541;DHT22;21650;48.840;9.162;2022-10-26T04:19:05;12.10;99.90
35541;DHT22;21650;48.840;9.162;2022-10-26T04:21:30;12.10;99.90
35541;DHT22;21650;48.840;9.162;2022-10-26T04:23:57;12.10;99.90
35541;DHT22;21650;48.840;9.162;2022-10-26T04:26:23;12.10;99.90
35541;DHT22;21650;48.840;9.162;2022-10-26T04:28:49;12.20;99.90
35541;DHT22;21650;48.840;9.162;2022-10-26T04:31:14;12.10;99.90
35541;DHT22;21650;48.840;9.162;2022-10-26T04:33:40;12.20;99.90
35541;DHT22;21650;48.840;9.162;2022-10-26T04:36:06;12.10;99.90
35541;DHT22;21650;48.840;9.162;2022-10-26T04:38:32;12.10;99.90
35541;DHT22;21650;48.840;9.162;2022-10-26T04:40:57;12.10;99.90
35541;DHT22;21650;48.840;9.162;2022-10-26T04:43:23;12.10;99.90
35541;DHT22;21650;48.840;9.162;2022-10-26T04:45:49;12.10;99.90
35541;DHT22;21650;48.840;9.162;2022-10-26T04:48:14;12.10;99.90
35541;DHT22;21650;48.840;9.162;2022-10-26T04:50:40;12.10;99.90
35541;DHT22;21650;48.840;9.162;2022-10-26T04:53:07;12.10;99.90
35541;DHT22;21650;48.840;9.162;2022-10-26T04:55:33;12.10;99.90
35541;DHT22;21650;48.840;9.162;2022-10-26T04:57:59;12.10;99.90
35541;DHT22;21650;48.840;9.162;2022-10-26T05:00:25;12.10;99.90
35541;DHT22;21650;48.840;9.162;2022-10-26T05:02:51;12.10;99.90
35541;DHT22;21650;48.840;9.162;2022-10-26T05:05:17;12.10;99.90
35541;DHT22;21650;48.840;9.162;2022-10-26T05:07:43;12.10;99.90
35541;DHT22;21650;48.840;9.162;2022-10-26T05:10:09;12.10;99.90
35541;DHT22;21650;48.840;9.162;2022-10-26T05:12:35;12.20;99.90
35541;DHT22;21650;48.840;9.162;2022-10-26T05:15:00;12.20;99.90
35541;DHT22;21650;48.840;9.162;2022-10-26T05:17:26;12.20;99.90
35541;DHT22;21650;48.840;9.162;2022-10-26T05:19:52;12.10;99.90
35541;DHT22;21650;48.840;9.162;2022-10-26T05:22:23;12.20;99.90
35541;DHT22;21650;48.840;9.162;2022-10-26T05:24:50;12.20;99.90
35541;DHT22;21650;48.840;9.162;2022-10-26T05:27:15;12.20;99.90
35541;DHT22;21650;48.840;9.162;2022-10-26T05:29:41;12.20;99.90
35541;DHT22;21650;48.840;9.162;2022-10-26T05:32:06;12.20;99.90
35541;DHT22;21650;48.840;9.162;2022-10-26T05:34:32;12.20;99.90
35541;DHT22;21650;48.840;9.162;2022-10-26T05:36:57;12.20;99.90
35541;DHT22;21650;48.840;9.162;2022-10-26T05:39:23;12.30;99.90
35541;DHT22;21650;48.840;9.162;2022-10-26T05:41:49;12.30;99.90
35541;DHT22;21650;48.840;9.162;2022-10-26T05:44:14;12.30;99.90
35541;DHT22;21650;48.840;9.162;2022-10-26T05:46:40;12.40;99.90
35541;DHT22;21650;48.840;9.162;2022-10-26T05:49:06;12.40;99.90
35541;DHT22;21650;48.840;9.162;2022-10-26T05:51:32;12.50;99.90
35541;DHT22;21650;48.840;9.162;2022-10-26T05:53:59;12.50;99.90
35541;DHT22;21650;48.840;9.162;2022-10-26T05:56:35;12.40;99.90
35541;DHT22;21650;48.840;9.162;2022-10-26T05:59:02;12.50;99.90
35541;DHT22;21650;48.840;9.162;2022-10-26T06:02:23;12.60;99.90
35541;DHT22;21650;48.840;9.162;2022-10-26T06:04:44;12.60;99.90
35541;DHT22;21650;48.840;9.162;2022-10-26T06:07:17;12.60;99.90
35541;DHT22;21650;48.840;9.162;2022-10-26T06:09:46;12.60;99.90
35541;DHT22;21650;48.840;9.162;2022-10-26T06:12:12;12.60;99.90
35541;DHT22;21650;48.840;9.162;2022-10-26T06:14:39;12.60;99.90
35541;DHT22;21650;48.840;9.162;2022-10-26T06:17:30;12.60;99.90
35541;DHT22;21650;48.840;9.162;2022-10-26T06:23:12;12.60;99.90
35541;DHT22;21650;48.840;9.162;2022-10-26T06:25:48;12.60;99.90
35541;DHT22;21650;48.840;9.162;2022-10-26T06:30:41;12.60;99.90
35541;DHT22;21650;48.840;9.162;2022-10-26T06:33:09;12.70;99.90
35541;DHT22;21650;48.840;9.162;2022-10-26T06:38:16;12.70;99.90
35541;DHT22;21650;48.840;9.162;2022-10-26T06:40:45;12.80;99.90
35541;DHT22;21650;48.840;9.162;2022-10-26T06:43:24;13.00;99.90
35541;DHT22;21650;48.840;9.162;2022-10-26T06:51:28;13.10;99.90
35541;DHT22;21650;48.840;9.162;2022-10-26T06:54:22;13.10;99.90
35541;DHT22;21650;48.840;9.162;2022-10-26T06:56:50;13.10;99.90
35541;DHT22;21650;48.840;9.162;2022-10-26T06:59:37;13.10;99.90
35541;DHT22;21650;48.840;9.162;2022-10-26T07:02:04;13.10;99.90
35541;DHT22;21650;48.840;9.162;2022-10-26T07:04:30;13.10;99.90
35541;DHT22;21650;48.840;9.162;2022-10-26T07:06:56;13.00;99.90
35541;DHT22;21650;48.840;9.162;2022-10-26T07:09:22;13.10;99.90
35541;DHT22;21650;48.840;9.162;2022-10-26T07:11:48;13.00;99.90
35541;DHT22;21650;48.840;9.162;2022-10-26T07:14:13;13.10;99.90
35541;DHT22;21650;48.840;9.162;2022-10-26T07:16:39;13.10;99.90
35541;DHT22;21650;48.840;9.162;2022-10-26T07:19:05;13.10;99.90
35541;DHT22;21650;48.840;9.162;2022-10-26T07:21:30;13.10;99.90
35541;DHT22;21650;48.840;9.162;2022-10-26T07:23:56;13.20;99.90
35541;DHT22;21650;48.840;9.162;2022-10-26T07:26:22;13.20;99.90
35541;DHT22;21650;48.840;9.162;2022-10-26T07:28:50;13.20;99.90
35541;DHT22;21650;48.840;9.162;2022-10-26T07:31:16;13.20;99.90
35541;DHT22;21650;48.840;9.162;2022-10-26T07:33:41;13.20;99.90
35541;DHT22;21650;48.840;9.162;2022-10-26T07:36:09;13.20;99.90
35541;DHT22;21650;48.840;9.162;2022-10-26T07:38:36;13.20;99.90
35541;DHT22;21650;48.840;9.162;2022-10-26T07:41:02;13.20;99.90
35541;DHT22;21650;48.840;9.162;2022-10-26T07:43:28;13.30;99.90
35541;DHT22;21650;48.840;9.162;2022-10-26T07:45:54;13.40;99.90
35541;DHT22;21650;48.840;9.162;2022-10-26T07:48:19;13.40;99.90
35541;DHT22;21650;48.840;9.162;2022-10-26T07:50:45;13.50;99.90
35541;DHT22;21650;48.840;9.162;2022-10-26T07:53:10;13.40;99.90
35541;DHT22;21650;48.840;9.162;2022-10-26T07:55:36;13.50;99.90
35541;DHT22;21650;48.840;9.162;2022-10-26T07:58:02;13.50;99.90
35541;DHT22;21650;48.840;9.162;2022-10-26T08:00:27;13.60;99.90
35541;DHT22;21650;48.840;9.162;2022-10-26T08:02:54;13.70;99.90
35541;DHT22;21650;48.840;9.162;2022-10-26T08:05:20;13.70;99.90
35541;DHT22;21650;48.840;9.162;2022-10-26T08:07:46;13.80;99.90
35541;DHT22;21650;48.840;9.162;2022-10-26T08:10:13;13.80;99.90
35541;DHT22;21650;48.840;9.162;2022-10-26T08:12:40;13.90;99.90
35541;DHT22;21650;48.840;9.162;2022-10-26T08:15:06;13.90;99.90
35541;DHT22;21650;48.840;9.162;2022-10-26T08:17:32;14.10;99.90
35541;DHT22;21650;48.840;9.162;2022-10-26T08:19:59;14.10;99.90
35541;DHT22;21650;48.840;9.162;2022-10-26T08:22:24;14.30;99.90
35541;DHT22;21650;48.840;9.162;2022-10-26T08:24:50;14.30;99.90
35541;DHT22;21650;48.840;9.162;2022-10-26T08:27:16;14.60;99.90
35541;DHT22;21650;48.840;9.162;2022-10-26T08:29:41;14.70;99.90
35541;DHT22;21650;48.840;9.162;2022-10-26T08:32:08;14.70;99.90
35541;DHT22;21650;48.840;9.162;2022-10-26T08:34:33;14.80;99.90
35541;DHT22;21650;48.840;9.162;2022-10-26T08:36:59;14.80;99.90
35541;DHT22;21650;48.840;9.162;2022-10-26T08:39:24;14.80;99.90
35541;DHT22;21650;48.840;9.162;2022-10-26T08:42:00;14.80;99.90
35541;DHT22;21650;48.840;9.162;2022-10-26T08:44:37;14.90;99.90
35541;DHT22;21650;48.840;9.162;2022-10-26T08:47:17;14.90;99.90
35541;DHT22;21650;48.840;9.162;2022-10-26T08:50:02;14.90;99.90
35541;DHT22;21650;48.840;9.162;2022-10-26T08:52:59;15.00;99.90
35541;DHT22;21650;48.840;9.162;2022-10-26T08:55:31;15.00;99.90
35541;DHT22;21650;48.840;9.162;2022-10-26T08:58:00;15.10;99.90
35541;DHT22;21650;48.840;9.162;2022-10-26T09:00:28;15.30;99.90
35541;DHT22;21650;48.840;9.162;2022-10-26T09:02:55;15.40;99.90
35541;DHT22;21650;48.840;9.162;2022-10-26T09:05:24;15.50;99.90
35541;DHT22;21650;48.840;9.162;2022-10-26T09:08:29;15.60;99.90
35541;DHT22;21650;48.840;9.162;2022-10-26T09:13:57;15.80;99.90
35541;DHT22;21650;48.840;9.162;2022-10-26T09:19:23;16.00;99.90
35541;DHT22;21650;48.840;9.162;2022-10-26T09:24:31;16.40;99.90
35541;DHT22;21650;48.840;9.162;2022-10-26T09:29:41;16.60;99.90
35541;DHT22;21650;48.840;9.162;2022-10-26T09:32:19;16.70;99.90
35541;DHT22;21650;48.840;9.162;2022-10-26T09:37:17;17.00;99.90
35541;DHT22;21650;48.840;9.162;2022-10-26T09:39:59;17.00;99.90
35541;DHT22;21650;48.840;9.162;2022-10-26T09:45:18;17.20;99.90
35541;DHT22;21650;48.840;9.162;2022-10-26T09:48:04;17.40;99.90
35541;DHT22;21650;48.840;9.162;2022-10-26T09:50:36;17.30;99.90
35541;DHT22;21650;48.840;9.162;2022-10-26T09:53:03;17.30;99.90
35541;DHT22;21650;48.840;9.162;2022-10-26T09:55:30;17.50;99.90
35541;DHT22;21650;48.840;9.162;2022-10-26T09:58:00;17.40;99.90
35541;DHT22;21650;48.840;9.162;2022-10-26T10:00:26;17.50;99.90
35541;DHT22;21650;48.840;9.162;2022-10-26T10:02:54;17.50;99.90
35541;DHT22;21650;48.840;9.162;2022-10-26T10:05:27;17.50;99.90
35541;DHT22;21650;48.840;9.162;2022-10-26T10:08:16;17.50;99.90
35541;DHT22;21650;48.840;9.162;2022-10-26T10:11:08;17.40;99.90
35541;DHT22;21650;48.840;9.162;2022-10-26T10:13:39;17.30;99.90
35541;DHT22;21650;48.840;9.162;2022-10-26T10:16:22;17.40;99.90
35541;DHT22;21650;48.840;9.162;2022-10-26T10:18:56;17.40;99.90
35541;DHT22;21650;48.840;9.162;2022-10-26T10:23:58;17.60;99.90
35541;DHT22;21650;48.840;9.162;2022-10-26T10:26:24;17.50;99.90
35541;DHT22;21650;48.840;9.162;2022-10-26T10:28:59;17.60;99.90
35541;DHT22;21650;48.840;9.162;2022-10-26T10:31:34;17.70;99.90
35541;DHT22;21650;48.840;9.162;2022-10-26T10:33:59;17.80;99.90
35541;DHT22;21650;48.840;9.162;2022-10-26T10:36:39;17.90;99.90
35541;DHT22;21650;48.840;9.162;2022-10-26T10:39:39;17.90;99.90
35541;DHT22;21650;48.840;9.162;2022-10-26T10:42:36;18.00;99.90
35541;DHT22;21650;48.840;9.162;2022-10-26T10:45:03;18.00;99.90
35541;DHT22;21650;48.840;9.162;2022-10-26T10:47:31;17.90;99.90
35541;DHT22;21650;48.840;9.162;2022-10-26T10:50:27;17.90;99.90
35541;DHT22;21650;48.840;9.162;2022-10-26T10:53:10;17.90;99.90
35541;DHT22;21650;48.840;9.162;2022-10-26T10:55:38;18.10;99.90
35541;DHT22;21650;48.840;9.162;2022-10-26T10:58:23;18.00;99.90
35541;DHT22;21650;48.840;9.162;2022-10-26T11:00:53;18.00;99.90
35541;DHT22;21650;48.840;9.162;2022-10-26T11:03:23;18.00;99.90
35541;DHT22;21650;48.840;9.162;2022-10-26T11:13:47;18.80;99.90
35541;DHT22;21650;48.840;9.162;2022-10-26T11:16:20;18.90;99.90
35541;DHT22;21650;48.840;9.162;2022-10-26T11:18:54;18.80;99.90
35541;DHT22;21650;48.840;9.162;2022-10-26T11:21:31;18.80;99.90
35541;DHT22;21650;48.840;9.162;2022-10-26T11:24:12;18.80;99.90
35541;DHT22;21650;48.840;9.162;2022-10-26T11:29:46;19.40;99.90
35541;DHT22;21650;48.840;9.162;2022-10-26T11:35:23;19.80;99.90
35541;DHT22;21650;48.840;9.162;2022-10-26T11:38:03;20.00;99.90
35541;DHT22;21650;48.840;9.162;2022-10-26T11:41:14;20.30;99.90
35541;DHT22;21650;48.840;9.162;2022-10-26T11:43:48;20.20;99.90
35541;DHT22;21650;48.840;9.162;2022-10-26T11:48:53;20.20;99.90
35541;DHT22;21650;48.840;9.162;2022-10-26T11:52:01;20.30;99.90
35541;DHT22;21650;48.840;9.162;2022-10-26T11:56:58;20.20;99.90
35541;DHT22;21650;48.840;9.162;2022-10-26T11:59:29;20.40;99.90
35541;DHT22;21650;48.840;9.162;2022-10-26T12:02:03;20.40;99.90
35541;DHT22;21650;48.840;9.162;2022-10-26T12:04:33;20.50;99.90
35541;DHT22;21650;48.840;9.162;2022-10-26T12:07:02;20.50;99.90
35541;DHT22;21650;48.840;9.162;2022-10-26T12:09:35;20.40;99.90
35541;DHT22;21650;48.840;9.162;2022-10-26T12:14:49;20.20;99.90
35541;DHT22;21650;48.840;9.162;2022-10-26T12:22:46;20.20;99.90
35541;DHT22;21650;48.840;9.162;2022-10-26T12:35:41;20.20;99.90
35541;DHT22;21650;48.840;9.162;2022-10-26T12:41:40;20.10;99.90
35541;DHT22;21650;48.840;9.162;2022-10-26T12:44:37;20.10;99.90
35541;DHT22;21650;48.840;9.162;2022-10-26T12:55:32;20.20;99.90
35541;DHT22;21650;48.840;9.162;2022-10-26T12:58:30;20.20;99.90
35541;DHT22;21650;48.840;9.162;2022-10-26T13:09:19;20.40;99.90
35541;DHT22;21650;48.840;9.162;2022-10-26T13:12:04;20.40;99.90
35541;DHT22;21650;48.840;9.162;2022-10-26T13:14:40;20.30;99.90
35541;DHT22;21650;48.840;9.162;2022-10-26T13:18:06;20.30;99.90
35541;DHT22;21650;48.840;9.162;2022-10-26T13:23:42;20.50;99.90
35541;DHT22;21650;48.840;9.162;2022-10-26T13:29:15;20.50;99.90
35541;DHT22;21650;48.840;9.162;2022-10-26T13:31:52;20.50;99.90
35541;DHT22;21650;48.840;9.162;2022-10-26T13:34:35;20.50;99.90
35541;DHT22;21650;48.840;9.162;2022-10-26T13:37:23;20.50;99.90
35541;DHT22;21650;48.840;9.162;2022-10-26T13:40:10;20.40;99.90
35541;DHT22;21650;48.840;9.162;2022-10-26T13:43:13;20.30;99.90
35541;DHT22;21650;48.840;9.162;2022-10-26T13:49:40;20.30;99.90
35541;DHT22;21650;48.840;9.162;2022-10-26T13:52:50;20.20;99.90
35541;DHT22;21650;48.840;9.162;2022-10-26T13:55:57;20.20;99.90
35541;DHT22;21650;48.840;9.162;2022-10-26T13:58:43;20.20;99.90
35541;DHT22;21650;48.840;9.162;2022-10-26T14:01:24;20.10;99.90
35541;DHT22;21650;48.840;9.162;2022-10-26T14:04:16;20.20;99.90
35541;DHT22;21650;48.840;9.162;2022-10-26T14:06:50;20.20;99.90
35541;DHT22;21650;48.840;9.162;2022-10-26T14:09:30;20.40;99.90
35541;DHT22;21650;48.840;9.162;2022-10-26T14:12:05;20.40;99.90
35541;DHT22;21650;48.840;9.162;2022-10-26T14:14:44;20.40;99.90
35541;DHT22;21650;48.840;9.162;2022-10-26T14:17:32;20.50;99.90
35541;DHT22;21650;48.840;9.162;2022-10-26T14:19:59;20.40;99.90
35541;DHT22;21650;48.840;9.162;2022-10-26T14:29:12;20.60;99.90
35541;DHT22;21650;48.840;9.162;2022-10-26T14:31:42;20.60;99.90
35541;DHT22;21650;48.840;9.162;2022-10-26T14:34:12;20.50;99.90
35541;DHT22;21650;48.840;9.162;2022-10-26T14:39:46;20.40;99.90
35541;DHT22;21650;48.840;9.162;2022-10-26T14:42:34;20.30;99.90
35541;DHT22;21650;48.840;9.162;2022-10-26T14:47:49;20.10;99.90
35541;DHT22;21650;48.840;9.162;2022-10-26T14:50:27;20.00;99.90
35541;DHT22;21650;48.840;9.162;2022-10-26T14:53:04;19.90;99.90
35541;DHT22;21650;48.840;9.162;2022-10-26T14:56:02;19.80;99.90
35541;DHT22;21650;48.840;9.162;2022-10-26T14:58:33;20.00;99.90
35541;DHT22;21650;48.840;9.162;2022-10-26T15:01:27;20.10;99.90
35541;DHT22;21650;48.840;9.162;2022-10-26T15:04:02;19.90;99.90
35541;DHT22;21650;48.840;9.162;2022-10-26T15:06:40;19.80;99.90
35541;DHT22;21650;48.840;9.162;2022-10-26T15:09:36;19.80;99.90
35541;DHT22;21650;48.840;9.162;2022-10-26T15:12:27;19.70;99.90
35541;DHT22;21650;48.840;9.162;2022-10-26T15:15:26;19.70;99.90
35541;DHT22;21650;48.840;9.162;2022-10-26T15:18:00;19.70;99.90
35541;DHT22;21650;48.840;9.162;2022-10-26T15:20:28;19.60;99.90
35541;DHT22;21650;48.840;9.162;2022-10-26T15:22:57;19.60;99.90
35541;DHT22;21650;48.840;9.162;2022-10-26T15:25:26;19.50;99.90
35541;DHT22;21650;48.840;9.162;2022-10-26T15:27:53;19.30;99.90
35541;DHT22;21650;48.840;9.162;2022-10-26T15:34:11;19.00;99.90
35541;DHT22;21650;48.840;9.162;2022-10-26T15:44:29;18.30;99.90
35541;DHT22;21650;48.840;9.162;2022-10-26T15:47:00;18.20;99.90
35541;DHT22;21650;48.840;9.162;2022-10-26T15:49:26;18.00;99.90
35541;DHT22;21650;48.840;9.162;2022-10-26T15:51:52;17.90;99.90
35541;DHT22;21650;48.840;9.162;2022-10-26T15:54:17;17.80;99.90
35541;DHT22;21650;48.840;9.162;2022-10-26T15:56:43;17.60;99.90
35541;DHT22;21650;48.840;9.162;2022-10-26T15:59:17;17.60;99.90
35541;DHT22;21650;48.840;9.162;2022-10-26T16:01:43;17.40;99.90
35541;DHT22;21650;48.840;9.162;2022-10-26T16:04:10;17.30;99.90
35541;DHT22;21650;48.840;9.162;2022-10-26T16:06:37;17.10;99.90
35541;DHT22;21650;48.840;9.162;2022-10-26T16:09:05;17.10;99.90
35541;DHT22;21650;48.840;9.162;2022-10-26T16:11:32;17.00;99.90
35541;DHT22;21650;48.840;9.162;2022-10-26T16:13:58;16.90;99.90
35541;DHT22;21650;48.840;9.162;2022-10-26T16:16:24;16.90;99.90
35541;DHT22;21650;48.840;9.162;2022-10-26T16:18:54;16.70;99.90
35541;DHT22;21650;48.840;9.162;2022-10-26T16:21:21;16.60;99.90
35541;DHT22;21650;48.840;9.162;2022-10-26T16:23:49;16.60;99.90
35541;DHT22;21650;48.840;9.162;2022-10-26T16:26:15;16.50;99.90
35541;DHT22;21650;48.840;9.162;2022-10-26T16:28:41;16.40;99.90
35541;DHT22;21650;48.840;9.162;2022-10-26T16:31:11;16.30;99.90
35541;DHT22;21650;48.840;9.162;2022-10-26T16:33:36;16.20;99.90
35541;DHT22;21650;48.840;9.162;2022-10-26T16:36:03;16.20;99.90
35541;DHT22;21650;48.840;9.162;2022-10-26T16:38:30;16.10;99.90
35541;DHT22;21650;48.840;9.162;2022-10-26T16:41:22;16.10;99.90
35541;DHT22;21650;48.840;9.162;2022-10-26T16:43:48;16.00;99.90
35541;DHT22;21650;48.840;9.162;2022-10-26T16:46:19;15.90;99.90
35541;DHT22;21650;48.840;9.162;2022-10-26T16:48:47;15.80;99.90
35541;DHT22;21650;48.840;9.162;2022-10-26T16:51:14;15.80;99.90
35541;DHT22;21650;48.840;9.162;2022-10-26T16:53:40;15.80;99.90
35541;DHT22;21650;48.840;9.162;2022-10-26T16:56:14;15.70;99.90
35541;DHT22;21650;48.840;9.162;2022-10-26T16:58:40;15.60;99.90
35541;DHT22;21650;48.840;9.162;2022-10-26T17:01:07;15.60;99.90
35541;DHT22;21650;48.840;9.162;2022-10-26T17:03:33;15.50;99.90
35541;DHT22;21650;48.840;9.162;2022-10-26T17:06:02;15.60;99.90
35541;DHT22;21650;48.840;9.162;2022-10-26T17:08:28;15.50;99.90
35541;DHT22;21650;48.840;9.162;2022-10-26T17:11:00;15.40;99.90
35541;DHT22;21650;48.840;9.162;2022-10-26T17:13:26;15.30;99.90
35541;DHT22;21650;48.840;9.162;2022-10-26T17:15:51;15.30;99.90
35541;DHT22;21650;48.840;9.162;2022-10-26T17:18:17;15.30;99.90
35541;DHT22;21650;48.840;9.162;2022-10-26T17:20:50;15.30;99.90
35541;DHT22;21650;48.840;9.162;2022-10-26T17:23:16;15.30;99.90
35541;DHT22;21650;48.840;9.162;2022-10-26T17:25:42;15.30;99.90
35541;DHT22;21650;48.840;9.162;2022-10-26T17:28:08;15.20;99.90
35541;DHT22;21650;48.840;9.162;2022-10-26T17:30:34;15.20;99.90
35541;DHT22;21650;48.840;9.162;2022-10-26T17:33:01;15.10;99.90
35541;DHT22;21650;48.840;9.162;2022-10-26T17:35:26;15.10;99.90
35541;DHT22;21650;48.840;9.162;2022-10-26T17:37:52;15.10;99.90
35541;DHT22;21650;48.840;9.162;2022-10-26T17:40:17;15.00;99.90
35541;DHT22;21650;48.840;9.162;2022-10-26T17:42:43;15.00;99.90
35541;DHT22;21650;48.840;9.162;2022-10-26T17:45:09;15.00;99.90
35541;DHT22;21650;48.840;9.162;2022-10-26T17:47:35;14.90;99.90
35541;DHT22;21650;48.840;9.162;2022-10-26T17:50:00;14.90;99.90
35541;DHT22;21650;48.840;9.162;2022-10-26T17:52:28;14.80;99.90
35541;DHT22;21650;48.840;9.162;2022-10-26T17:54:54;14.80;99.90
35541;DHT22;21650;48.840;9.162;2022-10-26T17:57:19;14.70;99.90
35541;DHT22;21650;48.840;9.162;2022-10-26T17:59:46;14.80;99.90
35541;DHT22;21650;48.840;9.162;2022-10-26T18:02:11;14.70;99.90
35541;DHT22;21650;48.840;9.162;2022-10-26T18:04:37;14.70;99.90
35541;DHT22;21650;48.840;9.162;2022-10-26T18:07:03;14.60;99.90
35541;DHT22;21650;48.840;9.162;2022-10-26T18:09:28;14.60;99.90
35541;DHT22;21650;48.840;9.162;2022-10-26T18:11:54;14.60;99.90
35541;DHT22;21650;48.840;9.162;2022-10-26T18:14:20;14.50;99.90
35541;DHT22;21650;48.840;9.162;2022-10-26T18:16:45;14.50;99.90
35541;DHT22;21650;48.840;9.162;2022-10-26T18:19:11;14.50;99.90
35541;DHT22;21650;48.840;9.162;2022-10-26T18:21:36;14.40;99.90
35541;DHT22;21650;48.840;9.162;2022-10-26T18:24:03;14.40;99.90
35541;DHT22;21650;48.840;9.162;2022-10-26T18:26:29;14.40;99.90
35541;DHT22;21650;48.840;9.162;2022-10-26T18:28:57;14.40;99.90
35541;DHT22;21650;48.840;9.162;2022-10-26T18:31:24;14.30;99.90
35541;DHT22;21650;48.840;9.162;2022-10-26T18:33:57;14.30;99.90